This is the latest recevied weather packets stored in our database for station/object N7CW. If no packets are shown the sender has not sent any weather packets the latest 10 day(s).
| Time | Temp. | Humidity | Pressure | Rain* | Wind** | Luminosity | Snow |
|---|---|---|---|---|---|---|---|
| 1777934586 | 15.56° C | 31% | 1014.4 hPa | 0 mm | - | 394 W/m² | - |
| 1777934282 | 15.56° C | 33% | 1014.1 hPa | 0 mm | - | 362 W/m² | - |
| 1777933978 | 15.56° C | 33% | 1014.2 hPa | 0 mm | - | 364 W/m² | - |
| 1777933675 | 15.56° C | 31% | 1014.4 hPa | 0 mm | - | 453 W/m² | - |
| 1777933372 | 15° C | 32% | 1014.5 hPa | 0 mm | - | 438 W/m² | - |
| 1777933070 | 15.56° C | 31% | 1014.6 hPa | 0 mm | - | 379 W/m² | - |
| 1777932767 | 15° C | 35% | 1014.6 hPa | 0 mm | - | 404 W/m² | - |
| 1777932464 | 16.11° C | 33% | 1014.6 hPa | 0 mm | - | 477 W/m² | - |
| 1777932160 | 15° C | 36% | 1014.6 hPa | 0 mm | - | 419 W/m² | - |
| 1777931858 | 16.11° C | 32% | 1014.7 hPa | 0 mm | - | 585 W/m² | - |
| 1777931554 | 15° C | 34% | 1014.6 hPa | 0 mm | - | 640 W/m² | - |
| 1777931250 | 15.56° C | 33% | 1014.6 hPa | 0 mm | - | 729 W/m² | - |
| 1777930947 | 16.11° C | 33% | 1014.9 hPa | 0 mm | - | 650 W/m² | - |
| 1777930643 | 15° C | 35% | 1014.8 hPa | 0 mm | - | 685 W/m² | - |
| 1777930340 | 15.56° C | 33% | 1014.9 hPa | 0 mm | - | 699 W/m² | - |
| 1777930037 | 15.56° C | 32% | 1014.8 hPa | 0 mm | - | 506 W/m² | - |
| 1777929734 | 15.56° C | 31% | 1014.9 hPa | 0 mm | - | 697 W/m² | - |
| 1777929431 | 15.56° C | 32% | 1014.7 hPa | 0 mm | - | 776 W/m² | - |
| 1777929127 | 16.11° C | 33% | 1015.3 hPa | 0 mm | - | 232 W/m² | - |
| 1777928825 | 15.56° C | 37% | 1014.7 hPa | 0 mm | - | 788 W/m² | - |
| 1777928521 | 15° C | 41% | 1014.7 hPa | 0 mm | - | 750 W/m² | - |
| 1777928218 | 15° C | 39% | 1014.8 hPa | 0 mm | - | 766 W/m² | - |
| 1777927915 | 15.56° C | 38% | 1014.8 hPa | 0 mm | - | 611 W/m² | - |
| 1777927614 | 15.56° C | 41% | 1015.1 hPa | 0 mm | - | 678 W/m² | - |
| 1777927313 | 15° C | 41% | 1015.1 hPa | 0 mm | - | 454 W/m² | - |
* Rain latest hour (hover to see other rain measurements)
** Current wind speed in m/s (hover to see current wind gust speed)